Paxton, Texas
Current Conditions -  °F | °C
As of 5:15 PM on Saturday 22 Nov 2014 (Local Time) from KSHV Reporting Station
Overcast Overcast  
Wind Chill: 67°   Ceiling: 2900
Heat Index: 67°   Visibility: 10mi
Dew Point: 58°   Wind: 9mph
Humidity: 73%   Direction: 130°SE
Pressure: 29.91"   Gusts: NA
Location:  31.9194°N, 94.0667°W
Report Text: KSHV 222315Z 13008KT 10SM BKN029 BKN048 OVC100 19/14 A2991 RMK AO2 T01940144
Loading
Personal Weather Stations






























Interactive Weather Map New forecast layout! Learn more

10-Day Weather Forecast

Advertisements
Track Severe Weather on mobile